EHDL Airport Information

Runway Information
Runway 02 Length 9678 ft width 164 ft
Elevation 144 ft Threshold 895 ft Heading 18
Runway 20 Length 9678 ft Width 164 ft
Elevation 158 ft Threshold 899 ft Heading 198
Airport Frequencies
Type APP Name RAPCON WES Frequency 123.575 MHZ
Type TWR Name TWR Frequency 122.1 MHZ
Airport Navaids
Type TACAN Name Deelen Frequency 112200 KHZ
Airport Weather Information & NOTAM
ADDS - METARS form results

(2017 UTC 20 April 2021)
Data provider http://aviationweather.gov/metar/data/
 
METAR text: EHDL 201955Z AUTO 34006KT 9999 SCT051 SCT058 11/06 Q1017 BLU
Conditions at: EHDL (DEELEN RNLAFB , NL) observed 1955 UTC 20 April 2021
Temperature: 11.0°C (52°F)
Dewpoint: 6.0°C (43°F) [RH = 71%]
Pressure (altimeter): 30.03 inches Hg (1017.0 mb)
Winds: from the NNW (340 degrees) at 7 MPH (6 knots; 3.1 m/s)
Visibility: 6 or more miles (10+ km)
Ceiling: at least 12,000 feet AGL
Clouds: scattered clouds at 5100 feet AGL
scattered clouds at 5800 feet AGL
Weather: no significant weather observed at this time

METAR text: EHDL 201925Z AUTO 34006KT 9999 SCT048 12/06 Q1016 BLU
Conditions at: EHDL (DEELEN RNLAFB , NL) observed 1925 UTC 20 April 2021
Temperature: 12.0°C (54°F)
Dewpoint: 6.0°C (43°F) [RH = 67%]
Pressure (altimeter): 30.00 inches Hg (1016.0 mb)
Winds: from the NNW (340 degrees) at 7 MPH (6 knots; 3.1 m/s)
Visibility: 6 or more miles (10+ km)
Ceiling: at least 12,000 feet AGL
Clouds: scattered clouds at 4800 feet AGL
Weather: no significant weather observed at this time

Forecast for: EHDL (DEELEN RNLAFB , NL)
Text: TAF EHDL 200822Z 2009/2021 VRB02KT CAVOK
Forecast period: 0900 to 1500 UTC 20 April 2021
Forecast type: FROM: standard forecast or significant change
Winds: variable direction winds at 2 MPH (2 knots; 1.0 m/s)
Visibility: 6 or more miles (10+ km)
Ceiling: unknown
Clouds: missing
Weather: NSW  (no significant weather)
Text: PROB30
Forecast period: 1300 to 1700 UTC 20 April 2021
Forecast type: TEMPORARY: The following changes expected for less than half the time period
Visibility: 2.80 miles (4.51 km)
Ceiling: at least 12,000 feet AGL
Clouds: scattered clouds at 2200 feet AGL
Weather: -SHRA  (light rain showers)
Text: TEMPO 2013/2017 4500 -SHRA SCT022CB
Forecast period: 1500 to 2100 UTC 20 April 2021
Forecast type: BECOMING: Conditions expected to become as follows by 1800 UTC 20 April 2021
Winds: from the NW (320 degrees) at 6 MPH (5 knots; 2.6 m/s)
Visibility: 6 or more miles (10+ km)
Ceiling: unknown
Clouds: missing
Weather: NSW  (no significant weather)